sensor_id;sensor_type;location;lat;lon;timestamp;P1;durP1;ratioP1;P2;durP2;ratioP2
32086;SDS011;18602;51.722;8.732;2022-09-28T00:00:52;11.35;;;3.80;;
32086;SDS011;18602;51.722;8.732;2022-09-28T00:03:18;6.50;;;3.35;;
32086;SDS011;18602;51.722;8.732;2022-09-28T00:05:45;8.90;;;4.05;;
32086;SDS011;18602;51.722;8.732;2022-09-28T00:08:10;7.93;;;3.42;;
32086;SDS011;18602;51.722;8.732;2022-09-28T00:10:36;4.38;;;3.25;;
32086;SDS011;18602;51.722;8.732;2022-09-28T00:13:02;5.38;;;2.78;;
32086;SDS011;18602;51.722;8.732;2022-09-28T00:15:31;6.40;;;2.58;;
32086;SDS011;18602;51.722;8.732;2022-09-28T00:17:57;3.47;;;2.60;;
32086;SDS011;18602;51.722;8.732;2022-09-28T00:20:23;6.32;;;3.30;;
32086;SDS011;18602;51.722;8.732;2022-09-28T00:22:49;4.43;;;2.58;;
32086;SDS011;18602;51.722;8.732;2022-09-28T00:25:15;4.60;;;2.60;;
32086;SDS011;18602;51.722;8.732;2022-09-28T00:27:41;5.38;;;2.75;;
32086;SDS011;18602;51.722;8.732;2022-09-28T00:30:07;8.25;;;3.05;;
32086;SDS011;18602;51.722;8.732;2022-09-28T00:32:33;5.38;;;3.00;;
32086;SDS011;18602;51.722;8.732;2022-09-28T00:34:59;6.03;;;2.72;;
32086;SDS011;18602;51.722;8.732;2022-09-28T00:37:25;8.63;;;2.90;;
32086;SDS011;18602;51.722;8.732;2022-09-28T00:39:51;4.47;;;3.00;;
32086;SDS011;18602;51.722;8.732;2022-09-28T00:44:47;2.88;;;2.35;;
32086;SDS011;18602;51.722;8.732;2022-09-28T00:52:44;7.05;;;2.90;;
32086;SDS011;18602;51.722;8.732;2022-09-28T00:55:13;4.80;;;2.70;;
32086;SDS011;18602;51.722;8.732;2022-09-28T00:57:40;5.63;;;2.72;;
32086;SDS011;18602;51.722;8.732;2022-09-28T01:00:07;8.15;;;3.33;;
32086;SDS011;18602;51.722;8.732;2022-09-28T01:02:35;5.15;;;2.72;;
32086;SDS011;18602;51.722;8.732;2022-09-28T01:05:00;8.18;;;2.92;;
32086;SDS011;18602;51.722;8.732;2022-09-28T01:07:28;6.07;;;3.03;;
32086;SDS011;18602;51.722;8.732;2022-09-28T01:09:54;7.43;;;3.00;;
32086;SDS011;18602;51.722;8.732;2022-09-28T01:12:20;7.10;;;2.90;;
32086;SDS011;18602;51.722;8.732;2022-09-28T01:14:46;4.03;;;2.42;;
32086;SDS011;18602;51.722;8.732;2022-09-28T01:19:49;8.25;;;2.83;;
32086;SDS011;18602;51.722;8.732;2022-09-28T01:22:25;5.03;;;2.95;;
32086;SDS011;18602;51.722;8.732;2022-09-28T01:25:06;6.50;;;2.78;;
32086;SDS011;18602;51.722;8.732;2022-09-28T01:27:40;6.20;;;2.65;;
32086;SDS011;18602;51.722;8.732;2022-09-28T01:30:09;6.50;;;2.95;;
32086;SDS011;18602;51.722;8.732;2022-09-28T01:32:39;6.43;;;3.08;;
32086;SDS011;18602;51.722;8.732;2022-09-28T01:35:16;7.95;;;3.17;;
32086;SDS011;18602;51.722;8.732;2022-09-28T01:37:51;12.80;;;3.17;;
32086;SDS011;18602;51.722;8.732;2022-09-28T01:40:19;7.63;;;2.83;;
32086;SDS011;18602;51.722;8.732;2022-09-28T01:42:46;5.85;;;2.80;;
32086;SDS011;18602;51.722;8.732;2022-09-28T01:45:19;5.35;;;2.80;;
32086;SDS011;18602;51.722;8.732;2022-09-28T01:47:46;7.10;;;2.90;;
32086;SDS011;18602;51.722;8.732;2022-09-28T01:50:16;10.68;;;2.80;;
32086;SDS011;18602;51.722;8.732;2022-09-28T01:52:50;8.27;;;4.00;;
32086;SDS011;18602;51.722;8.732;2022-09-28T02:00:11;4.82;;;3.05;;
32086;SDS011;18602;51.722;8.732;2022-09-28T02:02:46;19.70;;;8.80;;
32086;SDS011;18602;51.722;8.732;2022-09-28T02:05:14;16.58;;;6.25;;
32086;SDS011;18602;51.722;8.732;2022-09-28T02:07:43;7.07;;;2.72;;
32086;SDS011;18602;51.722;8.732;2022-09-28T02:10:15;7.03;;;2.80;;
32086;SDS011;18602;51.722;8.732;2022-09-28T02:12:54;6.50;;;2.40;;
32086;SDS011;18602;51.722;8.732;2022-09-28T02:15:25;5.15;;;2.50;;
32086;SDS011;18602;51.722;8.732;2022-09-28T02:17:54;4.93;;;2.30;;
32086;SDS011;18602;51.722;8.732;2022-09-28T02:20:20;8.00;;;2.53;;
32086;SDS011;18602;51.722;8.732;2022-09-28T02:22:46;7.93;;;2.70;;
32086;SDS011;18602;51.722;8.732;2022-09-28T02:27:59;4.82;;;2.35;;
32086;SDS011;18602;51.722;8.732;2022-09-28T02:30:25;5.80;;;2.53;;
32086;SDS011;18602;51.722;8.732;2022-09-28T02:32:53;4.57;;;2.25;;
32086;SDS011;18602;51.722;8.732;2022-09-28T02:35:19;4.72;;;2.40;;
32086;SDS011;18602;51.722;8.732;2022-09-28T02:37:45;4.65;;;2.38;;
32086;SDS011;18602;51.722;8.732;2022-09-28T02:40:15;3.08;;;2.47;;
32086;SDS011;18602;51.722;8.732;2022-09-28T02:42:51;4.50;;;2.50;;
32086;SDS011;18602;51.722;8.732;2022-09-28T02:52:59;4.50;;;3.00;;
32086;SDS011;18602;51.722;8.732;2022-09-28T02:55:36;7.60;;;2.70;;
32086;SDS011;18602;51.722;8.732;2022-09-28T03:00:53;4.93;;;2.67;;
32086;SDS011;18602;51.722;8.732;2022-09-28T03:03:30;4.95;;;2.58;;
32086;SDS011;18602;51.722;8.732;2022-09-28T03:08:39;5.68;;;2.70;;
32086;SDS011;18602;51.722;8.732;2022-09-28T03:11:20;5.18;;;2.92;;
32086;SDS011;18602;51.722;8.732;2022-09-28T03:13:47;5.55;;;2.92;;
32086;SDS011;18602;51.722;8.732;2022-09-28T03:16:15;5.80;;;3.28;;
32086;SDS011;18602;51.722;8.732;2022-09-28T03:18:41;4.30;;;2.88;;
32086;SDS011;18602;51.722;8.732;2022-09-28T03:21:08;8.35;;;3.58;;
32086;SDS011;18602;51.722;8.732;2022-09-28T03:23:35;7.78;;;3.63;;
32086;SDS011;18602;51.722;8.732;2022-09-28T03:26:01;6.40;;;3.58;;
32086;SDS011;18602;51.722;8.732;2022-09-28T03:28:27;9.63;;;4.28;;
32086;SDS011;18602;51.722;8.732;2022-09-28T03:30:53;7.18;;;3.78;;
32086;SDS011;18602;51.722;8.732;2022-09-28T03:33:19;9.70;;;4.32;;
32086;SDS011;18602;51.722;8.732;2022-09-28T03:35:46;7.40;;;4.60;;
32086;SDS011;18602;51.722;8.732;2022-09-28T03:38:12;9.73;;;5.32;;
32086;SDS011;18602;51.722;8.732;2022-09-28T03:40:39;10.52;;;5.60;;
32086;SDS011;18602;51.722;8.732;2022-09-28T03:43:05;10.07;;;5.47;;
32086;SDS011;18602;51.722;8.732;2022-09-28T03:45:30;13.75;;;5.72;;
32086;SDS011;18602;51.722;8.732;2022-09-28T03:47:56;10.57;;;5.55;;
